createdAt,value
2019-01-21T00:01:06.466Z,100577.00
2019-01-21T00:06:07.728Z,100577.00
2019-01-21T00:11:08.995Z,100581.00
2019-01-21T00:16:10.740Z,100589.00
2019-01-21T00:21:12.069Z,100604.00
2019-01-21T00:26:13.336Z,100590.00
2019-01-21T00:31:14.611Z,100589.00
2019-01-21T00:36:15.860Z,100588.00
2019-01-21T00:41:17.113Z,100593.00
2019-01-21T00:46:18.372Z,100597.00
2019-01-21T00:51:19.610Z,100593.00
2019-01-21T00:56:20.852Z,100600.00
2019-01-21T01:01:22.111Z,100594.00
2019-01-21T01:06:23.488Z,100601.00
2019-01-21T01:11:24.736Z,100602.00
2019-01-21T01:16:25.968Z,100601.00
2019-01-21T01:21:27.272Z,100601.00
2019-01-21T01:26:28.513Z,100606.00
2019-01-21T01:31:29.753Z,100618.00
2019-01-21T01:36:30.989Z,100616.00
2019-01-21T01:41:32.229Z,100601.00
2019-01-21T01:46:33.590Z,100615.00
2019-01-21T01:51:35.032Z,100617.00
2019-01-21T01:56:36.273Z,100622.00
2019-01-21T02:01:37.618Z,100620.00
2019-01-21T02:06:38.979Z,100628.00
2019-01-21T02:11:40.935Z,100624.00
2019-01-21T02:16:42.447Z,100625.00
2019-01-21T02:21:44.735Z,100625.00
2019-01-21T02:26:51.287Z,100623.00
2019-01-21T02:32:24.500Z,100621.00
2019-01-21T02:37:57.245Z,100617.00
2019-01-21T02:43:13.193Z,100623.00
2019-01-21T02:48:35.444Z,100624.00
2019-01-21T02:53:45.383Z,100613.00
2019-01-21T02:59:15.315Z,100616.00
2019-01-21T03:04:39.413Z,100609.00
2019-01-21T03:10:12.988Z,100608.00
2019-01-21T03:16:11.398Z,100612.00
2019-01-21T03:21:32.905Z,100618.00
2019-01-21T03:26:48.361Z,100615.00
2019-01-21T03:32:32.854Z,100622.00
2019-01-21T03:38:11.332Z,100621.00
2019-01-21T03:43:37.642Z,100612.00
2019-01-21T03:48:41.116Z,100613.00
2019-01-21T03:53:53.395Z,100624.00
2019-01-21T03:59:12.671Z,100628.00
2019-01-21T04:04:45.650Z,100632.00
2019-01-21T04:10:46.375Z,100632.00
2019-01-21T04:16:05.316Z,100627.00
2019-01-21T04:21:24.362Z,100624.00
2019-01-21T04:27:01.337Z,100635.00
2019-01-21T04:32:22.880Z,100625.00
2019-01-21T04:37:35.597Z,100638.00
2019-01-21T04:43:14.657Z,100640.00
2019-01-21T04:48:32.861Z,100634.00
2019-01-21T04:53:54.536Z,100634.00
2019-01-21T04:59:30.287Z,100633.00
2019-01-21T05:04:49.319Z,100631.00
2019-01-21T05:10:21.061Z,100641.00
2019-01-21T05:15:49.280Z,100641.00
2019-01-21T05:21:10.833Z,100642.00
2019-01-21T05:26:17.791Z,100647.00
2019-01-21T05:31:39.493Z,100643.00
2019-01-21T05:37:25.591Z,100655.00
2019-01-21T05:43:24.210Z,100652.00
2019-01-21T05:48:57.327Z,100653.00
2019-01-21T05:54:28.213Z,100646.00
2019-01-21T06:00:01.784Z,100653.00
2019-01-21T06:05:08.756Z,100665.00
2019-01-21T06:10:21.597Z,100660.00
2019-01-21T06:15:58.263Z,100671.00
2019-01-21T06:21:08.278Z,100663.00
2019-01-21T06:26:41.991Z,100668.00
2019-01-21T06:31:51.878Z,100666.00
2019-01-21T06:37:07.516Z,100671.00
2019-01-21T06:42:37.566Z,100679.00
2019-01-21T06:48:06.025Z,100677.00
2019-01-21T06:53:49.307Z,100677.00
2019-01-21T06:59:10.632Z,100681.00
2019-01-21T07:04:23.837Z,100678.00
2019-01-21T07:09:33.641Z,100678.00
2019-01-21T07:15:03.235Z,100682.00
2019-01-21T07:20:28.144Z,100688.00
2019-01-21T07:25:53.225Z,100699.00
2019-01-21T07:31:09.340Z,100704.00
2019-01-21T07:36:49.756Z,100702.00
2019-01-21T07:42:23.633Z,100707.00
2019-01-21T07:48:02.232Z,100692.00
2019-01-21T07:53:33.620Z,100701.00
2019-01-21T07:58:49.486Z,100699.00
2019-01-21T08:04:20.806Z,100715.00
2019-01-21T08:09:46.108Z,100715.00
2019-01-21T08:14:56.168Z,100716.00
2019-01-21T08:20:30.159Z,100717.00
2019-01-21T08:25:59.728Z,100722.00
2019-01-21T08:31:18.452Z,100731.00
2019-01-21T08:36:46.839Z,100745.00
2019-01-21T08:42:08.177Z,100735.00
2019-01-21T08:47:23.761Z,100738.00
2019-01-21T08:52:39.851Z,100744.00
2019-01-21T08:58:01.669Z,100743.00
2019-01-21T09:03:35.630Z,100747.00
2019-01-21T09:08:51.523Z,100760.00
2019-01-21T09:14:20.066Z,100767.00
2019-01-21T09:19:57.022Z,100767.00
2019-01-21T09:25:27.654Z,100759.00
2019-01-21T09:30:55.714Z,100770.00
2019-01-21T09:36:25.746Z,100768.00
2019-01-21T09:42:07.867Z,100780.00
2019-01-21T09:47:08.816Z,100775.00
2019-01-21T09:52:14.473Z,100772.00
2019-01-21T09:57:17.530Z,100779.00
2019-01-21T10:02:27.464Z,100768.00
2019-01-21T10:07:35.630Z,100771.00
2019-01-21T10:13:06.861Z,100763.00
2019-01-21T10:18:38.142Z,100752.00
2019-01-21T10:24:12.789Z,100749.00
2019-01-21T10:29:38.380Z,100753.00
2019-01-21T10:35:11.229Z,100750.00
2019-01-21T10:40:39.498Z,100737.00
2019-01-21T10:45:58.630Z,100735.00
2019-01-21T10:51:11.769Z,100730.00
2019-01-21T10:56:21.480Z,100720.00
2019-01-21T11:01:31.390Z,100722.00
2019-01-21T11:07:19.430Z,100705.00
2019-01-21T11:12:50.242Z,100718.00
2019-01-21T11:18:08.786Z,100723.00
2019-01-21T11:23:36.420Z,100724.00
2019-01-21T11:28:49.543Z,100708.00
2019-01-21T11:34:02.585Z,100711.00
2019-01-21T11:39:37.309Z,100706.00
2019-01-21T11:44:58.917Z,100700.00
2019-01-21T11:50:35.622Z,100694.00
2019-01-21T11:55:53.865Z,100692.00
2019-01-21T12:01:15.783Z,100690.00
2019-01-21T12:06:22.769Z,100677.00
2019-01-21T12:11:35.502Z,100676.00
2019-01-21T12:17:19.028Z,100659.00
2019-01-21T12:22:40.584Z,100676.00
2019-01-21T12:28:28.443Z,100668.00
2019-01-21T12:33:50.145Z,100658.00
2019-01-21T12:39:31.531Z,100655.00
2019-01-21T12:44:47.037Z,100643.00
2019-01-21T12:50:47.548Z,100643.00
2019-01-21T12:56:23.950Z,100638.00
2019-01-21T13:01:42.478Z,100630.00
2019-01-21T13:07:12.270Z,100635.00
2019-01-21T13:12:36.362Z,100619.00
2019-01-21T13:17:46.339Z,100612.00
2019-01-21T13:22:53.305Z,100611.00
2019-01-21T13:28:21.191Z,100595.00
2019-01-21T13:33:42.768Z,100590.00
2019-01-21T13:39:37.801Z,100591.00
2019-01-21T13:45:01.587Z,100573.00
2019-01-21T13:50:29.007Z,100563.00
2019-01-21T13:55:44.155Z,100569.00
2019-01-21T14:01:15.223Z,100578.00
2019-01-21T14:06:40.562Z,100571.00
2019-01-21T14:11:53.613Z,100560.00
2019-01-21T14:17:27.746Z,100549.00
2019-01-21T14:22:46.490Z,100564.00
2019-01-21T14:28:12.761Z,100559.00
2019-01-21T14:33:22.437Z,100554.00
2019-01-21T14:38:32.222Z,100555.00
2019-01-21T14:43:57.186Z,100534.00
2019-01-21T14:49:33.052Z,100540.00
2019-01-21T14:54:57.505Z,100531.00
2019-01-21T15:00:32.269Z,100551.00
2019-01-21T15:06:09.603Z,100536.00
2019-01-21T15:11:45.283Z,100533.00
2019-01-21T15:17:00.787Z,100538.00
2019-01-21T15:22:31.754Z,100521.00
2019-01-21T15:27:51.164Z,100521.00
2019-01-21T15:33:04.098Z,100510.00
2019-01-21T15:38:23.219Z,100512.00
2019-01-21T15:43:36.149Z,100514.00
2019-01-21T15:49:10.485Z,100517.00
2019-01-21T15:54:38.457Z,100511.00
2019-01-21T16:00:40.108Z,100505.00
2019-01-21T16:06:08.316Z,100494.00
2019-01-21T16:11:35.170Z,100497.00
2019-01-21T16:17:00.108Z,100502.00
2019-01-21T16:22:29.902Z,100503.00
2019-01-21T16:27:48.488Z,100518.00
2019-01-21T16:32:55.465Z,100510.00
2019-01-21T16:38:02.433Z,100500.00
2019-01-21T16:43:03.923Z,100499.00
2019-01-21T16:48:05.401Z,100494.00
2019-01-21T16:53:06.649Z,100477.00
2019-01-21T16:58:08.026Z,100495.00
2019-01-21T17:03:09.326Z,100502.00
2019-01-21T17:08:10.691Z,100497.00
2019-01-21T17:13:12.069Z,100503.00
2019-01-21T17:18:13.330Z,100508.00
2019-01-21T17:23:14.676Z,100503.00
2019-01-21T17:28:15.975Z,100518.00
2019-01-21T17:33:17.314Z,100501.00
2019-01-21T17:38:18.589Z,100493.00
2019-01-21T17:43:19.856Z,100491.00
2019-01-21T17:48:21.136Z,100489.00
2019-01-21T17:53:22.495Z,100498.00
2019-01-21T17:58:23.777Z,100506.00
2019-01-21T18:03:25.040Z,100491.00
2019-01-21T18:08:26.390Z,100474.00
2019-01-21T18:13:27.681Z,100464.00
2019-01-21T18:18:28.962Z,100470.00
2019-01-21T18:23:30.200Z,100463.00
2019-01-21T18:28:31.492Z,100455.00
2019-01-21T18:33:32.751Z,100460.00
2019-01-21T18:38:34.056Z,100452.00
2019-01-21T18:43:35.501Z,100451.00
2019-01-21T18:48:36.888Z,100465.00
2019-01-21T18:53:38.158Z,100469.00
2019-01-21T18:58:39.415Z,100472.00
2019-01-21T19:03:40.779Z,100469.00
2019-01-21T19:08:42.136Z,100471.00
2019-01-21T19:13:43.429Z,100476.00
2019-01-21T19:18:44.719Z,100483.00
2019-01-21T19:23:45.981Z,100476.00
2019-01-21T19:28:47.275Z,100476.00
2019-01-21T19:33:48.547Z,100467.00
2019-01-21T19:38:49.845Z,100463.00
2019-01-21T19:43:51.129Z,100464.00
2019-01-21T19:48:52.497Z,100457.00
2019-01-21T19:53:53.896Z,100452.00
2019-01-21T19:58:55.197Z,100462.00
2019-01-21T20:03:56.576Z,100456.00
2019-01-21T20:08:57.880Z,100462.00
2019-01-21T20:13:59.187Z,100451.00
2019-01-21T20:19:00.548Z,100447.00
2019-01-21T20:24:01.920Z,100449.00
2019-01-21T20:29:03.384Z,100436.00
2019-01-21T20:34:04.850Z,100428.00
2019-01-21T20:39:06.820Z,100433.00
2019-01-21T20:44:08.167Z,100420.00
2019-01-21T20:49:09.480Z,100408.00
2019-01-21T20:54:10.838Z,100411.00
2019-01-21T20:59:12.233Z,100405.00
2019-01-21T21:04:13.478Z,100404.00
2019-01-21T21:09:14.765Z,100397.00
2019-01-21T21:14:16.015Z,100398.00
2019-01-21T21:19:17.256Z,100399.00
2019-01-21T21:24:18.507Z,100409.00
2019-01-21T21:29:19.754Z,100398.00
2019-01-21T21:34:20.987Z,100400.00
2019-01-21T21:39:22.239Z,100401.00
2019-01-21T21:44:23.472Z,100393.00
2019-01-21T21:49:24.845Z,100385.00
2019-01-21T21:54:26.080Z,100391.00
2019-01-21T21:59:27.610Z,100386.00
2019-01-21T22:04:28.904Z,100385.00
2019-01-21T22:09:30.144Z,100397.00
2019-01-21T22:14:31.370Z,100386.00
2019-01-21T22:19:32.609Z,100366.00
2019-01-21T22:24:33.892Z,100375.00
2019-01-21T22:29:35.129Z,100365.00
2019-01-21T22:34:36.781Z,100354.00
2019-01-21T22:39:38.034Z,100358.00
2019-01-21T22:44:39.282Z,100339.00
2019-01-21T22:49:40.560Z,100357.00
2019-01-21T22:54:41.798Z,100358.00
2019-01-21T22:59:43.076Z,100353.00
2019-01-21T23:04:44.305Z,100352.00
2019-01-21T23:09:46.168Z,100357.00
2019-01-21T23:14:47.420Z,100344.00
2019-01-21T23:19:48.664Z,100342.00
2019-01-21T23:24:49.894Z,100342.00
2019-01-21T23:29:51.139Z,100339.00
2019-01-21T23:34:52.381Z,100342.00
2019-01-21T23:39:53.628Z,100331.00
2019-01-21T23:44:54.873Z,100318.00
2019-01-21T23:49:56.161Z,100305.00
2019-01-21T23:54:57.399Z,100297.00
2019-01-21T23:59:58.669Z,100291.00
